Pagina principale
METAR-TAF:

METAR-TAF

Aeroporti :

Aeroporto di Figari Corsica del Sud

Figari, Francia

latitudine: 41-30N, longitudine: 009-06E, altezza: 26 m

Osservazione

Il bollettino è stato emesso 39 minuti fa, alle 16:30 UTC
Vento 8 kt da nord-est, variando fra nord e est
Temperature 23°C
Umidità 61%
Pressione 1014 hPa
Visibilità 10 km o più
nessuna nube inferiore a 1500 m e nessun cumulonembo

METAR: LFKF 311630Z AUTO 04008KT 010V080 CAVOK 23/15 Q1014

Ora: 19:09 (17:09 UTC)


TAF: mancante

Osservazioni e previsioni meteorologiche di più di 4000 aeroporti (messaggi METAR e TAF).

Le stazioni disponibili sono rappresentate dai dischi gialli e rossi sulla carta.

Puntare il mouse per vedere il nome della stazione.

Clicca sopra per visualizzare le osservazioni e previsioni meteorologiche.

Per cambiare la mappa : fare clic sui pulsanti verdi con una croce nera per ingrandire, il pulsante verde con un trattino per diminuire, o sulla freccia verde per le mappe adiacenti.


METAR-TAF: